Time;durP1;ratioP1;P1;durP2;ratioP2;P2;SDS_P1;SDS_P2;PMS_P1;PMS_P2;Temp;Humidity;BMP_temperature;BMP_pressure;BME280_temperature;BME280_humidity;BME280_pressure;Samples;Min_cycle;Max_cycle;Signal;HPM_P1;HPM_P2
2021/08/12 00:00:35;;;;;;;6.90;5.77;;;23.50;99.90;;;;;;4987168;28;20194;-64
2021/08/12 00:03:00;;;;;;;8.87;6.03;;;23.40;99.90;;;;;;4989025;28;20189;-64
2021/08/12 00:05:26;;;;;;;7.70;6.00;;;23.40;99.90;;;;;;4985379;28;20209;-64
2021/08/12 00:07:51;;;;;;;6.50;5.80;;;23.40;99.90;;;;;;4985546;28;20230;-65
2021/08/12 00:10:17;;;;;;;7.80;6.40;;;23.40;99.90;;;;;;4984806;28;20690;-65
2021/08/12 00:12:43;;;;;;;7.53;5.90;;;23.30;99.90;;;;;;4985796;28;20244;-65
2021/08/12 00:15:09;;;;;;;7.50;6.20;;;23.20;99.90;;;;;;4987623;28;20212;-65
2021/08/12 00:17:34;;;;;;;6.50;5.80;;;23.30;99.90;;;;;;4984656;28;20233;-65
2021/08/12 00:20:00;;;;;;;10.20;6.40;;;23.10;99.90;;;;;;4986760;28;20271;-65
2021/08/12 00:22:26;;;;;;;6.70;6.10;;;23.10;99.90;;;;;;4987613;28;20697;-64
2021/08/12 00:24:51;;;;;;;6.83;6.13;;;23.20;99.90;;;;;;4983461;28;20221;-65
2021/08/12 00:27:17;;;;;;;7.33;6.17;;;23.30;99.90;;;;;;4983016;28;20209;-64
2021/08/12 00:29:42;;;;;;;6.60;6.03;;;23.30;99.90;;;;;;4986796;28;20806;-64
2021/08/12 00:32:08;;;;;;;6.47;5.87;;;23.40;99.90;;;;;;4983340;28;20200;-64
2021/08/12 00:34:34;;;;;;;7.47;6.67;;;23.40;99.90;;;;;;4985068;28;20272;-65
2021/08/12 00:37:01;;;;;;;7.07;6.37;;;23.40;99.90;;;;;;4983916;28;20214;-65
2021/08/12 00:39:27;;;;;;;6.90;6.20;;;23.30;99.90;;;;;;4985316;28;20606;-65
2021/08/12 00:41:53;;;;;;;7.03;6.30;;;23.30;99.90;;;;;;4983702;28;20437;-65
2021/08/12 00:44:19;;;;;;;7.03;6.40;;;23.10;99.90;;;;;;4983897;28;20308;-65
2021/08/12 00:46:45;;;;;;;6.53;5.83;;;23.00;99.90;;;;;;4986900;28;20524;-65
2021/08/12 00:49:10;;;;;;;7.10;6.40;;;23.00;99.90;;;;;;4986146;28;20205;-65
2021/08/12 00:51:39;;;;;;;8.77;6.73;;;22.80;99.90;;;;;;4985304;28;20252;-65
2021/08/12 00:54:04;;;;;;;9.17;6.60;;;22.70;99.90;;;;;;4989371;28;20213;-64
2021/08/12 00:56:31;;;;;;;7.03;6.33;;;22.80;99.90;;;;;;4985157;28;20479;-65
2021/08/12 00:58:56;;;;;;;8.27;6.00;;;22.70;99.90;;;;;;4987019;28;20812;-64
2021/08/12 01:01:22;;;;;;;9.03;6.37;;;22.90;99.90;;;;;;4991061;28;20429;-64
2021/08/12 01:03:48;;;;;;;7.67;6.33;;;23.00;99.90;;;;;;4988316;28;20201;-64
2021/08/12 01:06:22;;;;;;;8.30;6.20;;;23.10;99.90;;;;;;4988516;28;20189;-65
2021/08/12 01:09:09;;;;;;;9.10;5.77;;;23.00;99.90;;;;;;4989851;28;20268;-64
2021/08/12 01:11:41;;;;;;;7.77;6.50;;;23.00;99.90;;;;;;4987496;28;20441;-63
2021/08/12 01:14:37;;;;;;;7.73;6.90;;;22.70;99.90;;;;;;4988599;28;20462;-64
2021/08/12 01:17:05;;;;;;;9.30;6.13;;;22.70;99.90;;;;;;4990491;28;20471;-64
2021/08/12 01:19:39;;;;;;;7.70;5.87;;;22.60;99.90;;;;;;4988438;28;20830;-65
2021/08/12 01:22:11;;;;;;;8.57;6.37;;;22.50;99.90;;;;;;4989408;28;20421;-65
2021/08/12 01:24:42;;;;;;;8.33;6.60;;;22.50;99.90;;;;;;4990351;28;20452;-65
2021/08/12 01:27:13;;;;;;;7.00;5.73;;;22.50;99.90;;;;;;4986326;28;20528;-64
2021/08/12 01:29:49;;;;;;;7.80;7.00;;;22.30;99.90;;;;;;4987087;28;20546;-65
2021/08/12 01:32:47;;;;;;;9.00;6.70;;;22.50;99.90;;;;;;4989634;28;20471;-65
2021/08/12 01:35:19;;;;;;;7.40;6.60;;;22.20;99.90;;;;;;4986976;28;20461;-65
2021/08/12 01:38:12;;;;;;;7.17;6.47;;;22.40;99.90;;;;;;4988995;28;20835;-64
2021/08/12 01:40:38;;;;;;;9.90;6.57;;;22.60;99.90;;;;;;4987315;28;20448;-64
2021/08/12 01:43:14;;;;;;;7.00;6.20;;;22.70;99.90;;;;;;4985526;28;20441;-64
2021/08/12 01:45:39;;;;;;;6.63;6.03;;;22.90;99.90;;;;;;4987964;28;20858;-64
2021/08/12 01:48:07;;;;;;;7.77;6.60;;;22.80;99.90;;;;;;4989254;28;20444;-64
2021/08/12 01:50:34;;;;;;;9.27;6.60;;;22.30;99.90;;;;;;4987215;28;20670;-65
2021/08/12 01:53:01;;;;;;;6.53;5.60;;;22.20;99.90;;;;;;4988721;28;20429;-66
2021/08/12 01:55:33;;;;;;;7.30;5.83;;;22.10;99.90;;;;;;4988537;28;20437;-64
2021/08/12 01:58:00;;;;;;;7.77;6.77;;;22.20;99.90;;;;;;4985994;28;20425;-65
2021/08/12 02:00:29;;;;;;;6.90;6.00;;;22.40;99.90;;;;;;4988341;28;21012;-67
2021/08/12 02:02:57;;;;;;;9.37;6.30;;;22.30;99.90;;;;;;4988286;28;20425;-65
2021/08/12 02:05:24;;;;;;;7.17;6.47;;;22.00;99.90;;;;;;4988298;28;20618;-65
2021/08/12 02:07:52;;;;;;;7.80;6.30;;;21.60;99.90;;;;;;4987049;28;20456;-65
2021/08/12 02:10:18;;;;;;;6.80;6.20;;;21.60;99.90;;;;;;4988311;28;20523;-64
2021/08/12 02:12:47;;;;;;;6.40;5.80;;;21.80;99.90;;;;;;4987779;28;20436;-65
2021/08/12 02:15:16;;;;;;;8.70;6.70;;;22.00;99.90;;;;;;4988725;28;20950;-65
2021/08/12 02:17:41;;;;;;;8.33;6.10;;;22.10;99.90;;;;;;4987171;28;20456;-65
2021/08/12 02:20:13;;;;;;;8.57;7.67;;;22.20;99.90;;;;;;4987527;28;20499;-64
2021/08/12 02:22:50;;;;;;;9.00;7.90;;;22.30;99.90;;;;;;4989810;28;20271;-65
2021/08/12 02:25:42;;;;;;;9.50;6.30;;;22.10;99.90;;;;;;4984963;28;20456;-65
2021/08/12 02:28:10;;;;;;;7.03;6.33;;;22.20;99.90;;;;;;4984805;28;20461;-65
2021/08/12 02:30:43;;;;;;;7.83;5.83;;;22.30;99.90;;;;;;4988433;28;20548;-65
2021/08/12 02:33:13;;;;;;;8.53;7.17;;;22.20;99.90;;;;;;4984172;28;20429;-65
2021/08/12 02:35:40;;;;;;;6.90;6.20;;;22.20;99.90;;;;;;4986479;28;20927;-64
2021/08/12 02:38:10;;;;;;;7.27;6.50;;;22.10;99.90;;;;;;4988373;28;20792;-64
2021/08/12 02:40:43;;;;;;;8.03;7.23;;;22.00;99.90;;;;;;4986253;28;20429;-64
2021/08/12 02:43:12;;;;;;;9.43;6.90;;;21.80;99.90;;;;;;4984038;28;20445;-65
2021/08/12 02:45:38;;;;;;;11.80;6.40;;;21.60;99.90;;;;;;4988552;28;20796;-65
2021/08/12 02:48:08;;;;;;;6.57;5.97;;;21.20;99.90;;;;;;4985237;28;20526;-65
2021/08/12 02:50:38;;;;;;;8.10;6.53;;;21.30;99.90;;;;;;4986359;28;20527;-65
2021/08/12 02:53:05;;;;;;;6.80;6.10;;;21.60;99.90;;;;;;4987478;28;20882;-64
2021/08/12 02:55:32;;;;;;;6.50;5.63;;;21.60;99.90;;;;;;4985000;28;20485;-65
2021/08/12 02:57:58;;;;;;;11.73;6.50;;;21.20;99.90;;;;;;4985509;28;20444;-65
2021/08/12 03:00:23;;;;;;;7.13;6.03;;;21.00;99.90;;;;;;4985195;28;20460;-64
2021/08/12 03:02:50;;;;;;;6.87;5.93;;;21.20;99.90;;;;;;4985193;28;20460;-64
2021/08/12 03:05:19;;;;;;;7.60;5.63;;;21.20;99.90;;;;;;4989210;28;20205;-64
2021/08/12 03:07:46;;;;;;;7.63;6.10;;;21.30;99.90;;;;;;4952260;28;20449;-64
2021/08/12 03:10:13;;;;;;;7.63;6.10;;;21.40;99.90;;;;;;4983639;28;20849;-64
2021/08/12 03:12:40;;;;;;;8.40;6.67;;;21.30;99.90;;;;;;4980665;28;20485;-65
2021/08/12 03:15:08;;;;;;;6.97;6.23;;;21.40;99.90;;;;;;4985730;28;20459;-64
2021/08/12 03:17:35;;;;;;;7.90;5.97;;;21.10;99.90;;;;;;4988536;28;20988;-63
2021/08/12 03:20:01;;;;;;;10.13;5.70;;;21.10;99.90;;;;;;4983871;28;20441;-64
2021/08/12 03:22:29;;;;;;;7.40;5.90;;;21.00;99.90;;;;;;4986285;28;20968;-64
2021/08/12 03:24:55;;;;;;;7.13;5.50;;;21.00;99.90;;;;;;4985633;28;20483;-64
2021/08/12 03:27:21;;;;;;;10.40;6.10;;;20.90;99.90;;;;;;4986248;28;20425;-63
2021/08/12 03:29:47;;;;;;;8.53;6.23;;;20.90;99.90;;;;;;4980845;28;20893;-64
2021/08/12 03:32:13;;;;;;;8.97;6.47;;;20.80;99.90;;;;;;4987097;28;20189;-64
2021/08/12 03:34:39;;;;;;;8.63;6.23;;;20.90;99.90;;;;;;4984068;28;20563;-65
2021/08/12 03:37:05;;;;;;;8.90;6.70;;;20.80;99.90;;;;;;4987649;28;20552;-64
2021/08/12 03:39:31;;;;;;;6.73;6.00;;;20.60;99.90;;;;;;4985337;28;20186;-64
2021/08/12 03:41:58;;;;;;;10.20;6.20;;;20.40;99.90;;;;;;4982929;28;20954;-65
2021/08/12 03:44:23;;;;;;;9.60;6.83;;;20.50;99.90;;;;;;4986487;28;20466;-64
2021/08/12 03:46:49;;;;;;;8.10;6.40;;;20.50;99.90;;;;;;4985215;28;21004;-64
2021/08/12 03:49:15;;;;;;;8.50;6.60;;;20.50;99.90;;;;;;4984406;28;20197;-65
2021/08/12 03:51:41;;;;;;;8.30;7.20;;;20.40;99.90;;;;;;4987518;28;20397;-64
2021/08/12 03:54:07;;;;;;;8.00;6.57;;;20.50;99.90;;;;;;4985103;28;20456;-64
2021/08/12 03:56:32;;;;;;;8.33;6.60;;;20.50;99.90;;;;;;4988101;28;20267;-64
2021/08/12 03:58:58;;;;;;;7.57;6.27;;;20.40;99.90;;;;;;4983878;28;20186;-64
2021/08/12 04:01:27;;;;;;;8.17;6.70;;;20.40;99.90;;;;;;4988830;28;20324;-65
2021/08/12 04:03:52;;;;;;;8.60;6.13;;;20.60;99.90;;;;;;4985803;28;20190;-64
2021/08/12 04:06:18;;;;;;;14.63;7.23;;;20.50;99.90;;;;;;4984338;28;20950;-65
2021/08/12 04:08:44;;;;;;;7.00;6.30;;;20.40;99.90;;;;;;4986680;28;20243;-64
2021/08/12 04:11:10;;;;;;;7.90;5.87;;;20.10;99.90;;;;;;4985037;28;20204;-64
2021/08/12 04:13:36;;;;;;;11.37;5.53;;;20.10;99.90;;;;;;4985207;28;20198;-65
2021/08/12 04:16:02;;;;;;;8.47;6.20;;;20.10;99.90;;;;;;4986030;28;20457;-65
2021/08/12 04:18:30;;;;;;;7.23;5.57;;;19.90;99.90;;;;;;4982464;28;20638;-64
2021/08/12 04:20:55;;;;;;;7.77;5.97;;;19.80;99.90;;;;;;4986240;28;20518;-64
2021/08/12 04:23:21;;;;;;;10.50;5.73;;;20.00;99.90;;;;;;4985344;28;20494;-65
2021/08/12 04:25:51;;;;;;;6.83;6.10;;;20.20;99.90;;;;;;4984974;28;20213;-65
2021/08/12 04:28:17;;;;;;;6.30;5.70;;;20.20;99.90;;;;;;4985096;28;20185;-65
2021/08/12 04:30:43;;;;;;;5.90;5.30;;;20.50;99.90;;;;;;4987098;28;20487;-65
2021/08/12 04:33:08;;;;;;;7.87;6.23;;;20.80;99.90;;;;;;4986712;28;20806;-63
2021/08/12 04:35:34;;;;;;;8.90;5.63;;;20.80;99.90;;;;;;4991590;28;20208;-63
2021/08/12 04:37:59;;;;;;;9.73;5.77;;;20.90;99.90;;;;;;4975149;28;20190;-64
2021/08/12 04:40:25;;;;;;;8.17;5.40;;;21.00;99.90;;;;;;4991649;28;20198;-64
2021/08/12 04:42:52;;;;;;;7.47;6.10;;;21.00;99.90;;;;;;4990983;28;20190;-65
2021/08/12 04:45:20;;;;;;;7.83;7.07;;;21.00;99.90;;;;;;4990892;28;20216;-65
2021/08/12 04:47:45;;;;;;;10.90;6.30;;;21.20;99.90;;;;;;4991774;28;20539;-65
2021/08/12 04:50:12;;;;;;;7.53;5.50;;;21.20;99.90;;;;;;4990101;28;20453;-65
2021/08/12 04:52:41;;;;;;;9.27;6.73;;;21.30;99.90;;;;;;4991948;28;20213;-67
2021/08/12 04:55:08;;;;;;;9.27;6.67;;;21.30;99.90;;;;;;4992429;28;20487;-68
2021/08/12 04:57:34;;;;;;;6.57;5.93;;;21.20;99.90;;;;;;4992094;28;21087;-68
2021/08/12 04:59:59;;;;;;;10.10;6.90;;;21.30;99.90;;;;;;4991944;28;20567;-67
2021/08/12 05:02:26;;;;;;;8.67;6.67;;;21.20;99.90;;;;;;4991316;28;20801;-68
2021/08/12 05:04:52;;;;;;;7.33;5.97;;;21.10;99.90;;;;;;4990788;28;20206;-67
2021/08/12 05:07:18;;;;;;;7.60;6.40;;;21.00;99.90;;;;;;4991873;28;20433;-67
2021/08/12 05:09:44;;;;;;;7.53;6.77;;;20.80;99.90;;;;;;4989077;28;20439;-67
2021/08/12 05:12:09;;;;;;;8.60;7.70;;;21.00;99.90;;;;;;4990278;28;20835;-67
2021/08/12 05:14:35;;;;;;;7.93;6.53;;;21.00;99.90;;;;;;4993036;28;20272;-68
2021/08/12 05:17:01;;;;;;;8.00;6.73;;;21.10;99.90;;;;;;4989466;28;20212;-67
2021/08/12 05:19:26;;;;;;;9.60;6.90;;;21.20;99.90;;;;;;4988637;28;20190;-67
2021/08/12 05:21:53;;;;;;;7.43;6.60;;;21.20;99.90;;;;;;4991403;28;20220;-69
2021/08/12 05:24:18;;;;;;;7.40;6.63;;;21.30;99.90;;;;;;4990107;28;20264;-68
2021/08/12 05:26:44;;;;;;;9.67;8.07;;;21.40;99.90;;;;;;4991046;28;20834;-68
2021/08/12 05:29:09;;;;;;;9.70;6.50;;;21.10;99.90;;;;;;4985720;28;20208;-68
2021/08/12 05:31:35;;;;;;;7.30;6.10;;;21.10;99.90;;;;;;4988261;28;20288;-67
2021/08/12 05:34:01;;;;;;;6.90;6.03;;;20.80;99.90;;;;;;4992698;28;20853;-68
2021/08/12 05:36:26;;;;;;;9.93;7.50;;;20.80;99.90;;;;;;4990302;28;20216;-67
2021/08/12 05:38:53;;;;;;;8.67;6.67;;;20.60;99.90;;;;;;4990992;28;20269;-68
2021/08/12 05:41:19;;;;;;;11.23;6.97;;;20.70;99.90;;;;;;4992098;28;20174;-68
2021/08/12 05:43:44;;;;;;;8.57;7.10;;;21.00;99.90;;;;;;4991459;28;21086;-68
2021/08/12 05:46:10;;;;;;;8.93;7.20;;;21.00;99.90;;;;;;4986316;28;20336;-68
2021/08/12 05:48:36;;;;;;;6.77;6.07;;;21.10;99.90;;;;;;4988157;28;20236;-68
2021/08/12 05:51:01;;;;;;;10.73;6.63;;;21.00;99.90;;;;;;4984494;28;20222;-67
2021/08/12 05:53:30;;;;;;;8.97;6.67;;;21.10;99.90;;;;;;4988412;28;20194;-67
2021/08/12 05:55:55;;;;;;;11.43;7.60;;;20.90;99.90;;;;;;4988842;28;20245;-67
2021/08/12 05:58:22;;;;;;;8.53;6.80;;;20.70;99.90;;;;;;4985751;28;20433;-67
2021/08/12 06:00:50;;;;;;;9.70;7.47;;;20.70;99.90;;;;;;4989144;28;20182;-68
2021/08/12 06:03:16;;;;;;;9.10;7.10;;;20.90;99.90;;;;;;4985274;28;20437;-67
2021/08/12 06:05:42;;;;;;;9.13;7.13;;;21.10;99.90;;;;;;4987190;28;20515;-68
2021/08/12 06:08:10;;;;;;;9.63;7.10;;;21.10;99.90;;;;;;5002217;28;20277;-67
2021/08/12 06:10:36;;;;;;;9.23;7.60;;;21.00;99.90;;;;;;4983901;28;20293;-68
2021/08/12 06:13:05;;;;;;;11.20;6.93;;;21.20;99.90;;;;;;4986504;28;20599;-67
2021/08/12 06:15:32;;;;;;;8.70;6.73;;;21.50;99.90;;;;;;4987041;28;20536;-69
2021/08/12 06:17:58;;;;;;;7.47;6.37;;;21.70;99.90;;;;;;4984406;28;20532;-67
2021/08/12 06:20:23;;;;;;;9.20;7.00;;;22.00;99.90;;;;;;4988533;28;20540;-67
2021/08/12 06:22:52;;;;;;;10.10;7.63;;;22.00;99.90;;;;;;4987515;28;20265;-67
2021/08/12 06:25:17;;;;;;;10.50;7.37;;;21.80;99.90;;;;;;4985715;28;20210;-68
2021/08/12 06:27:43;;;;;;;10.07;7.20;;;21.80;99.90;;;;;;4987274;28;21003;-67
2021/08/12 06:30:10;;;;;;;9.10;7.20;;;22.00;99.90;;;;;;4984844;28;20210;-68
2021/08/12 06:32:37;;;;;;;8.87;8.03;;;22.00;99.90;;;;;;4985836;28;20686;-68
2021/08/12 06:35:03;;;;;;;12.10;7.57;;;22.20;99.90;;;;;;4980734;28;20471;-67
2021/08/12 06:37:38;;;;;;;8.60;6.67;;;22.20;99.90;;;;;;4983693;28;21087;-67
2021/08/12 06:40:04;;;;;;;7.80;6.17;;;22.30;99.90;;;;;;4985494;28;20519;-68
2021/08/12 06:42:30;;;;;;;9.90;7.93;;;22.50;99.90;;;;;;4987476;28;20436;-67
2021/08/12 06:44:55;;;;;;;12.63;8.03;;;22.50;99.90;;;;;;4987311;28;20510;-68
2021/08/12 06:47:21;;;;;;;8.20;6.67;;;22.50;99.90;;;;;;4986926;28;20189;-66
2021/08/12 06:49:47;;;;;;;9.97;8.10;;;22.50;99.90;;;;;;4984560;28;20260;-67
2021/08/12 06:52:13;;;;;;;8.50;7.30;;;22.50;99.90;;;;;;4986478;28;20206;-67
2021/08/12 06:54:38;;;;;;;12.77;8.13;;;22.60;99.90;;;;;;4988626;28;20317;-68
2021/08/12 06:57:04;;;;;;;11.00;8.00;;;22.50;99.90;;;;;;4983332;28;20555;-68
2021/08/12 06:59:30;;;;;;;10.97;7.97;;;22.70;99.90;;;;;;4983985;28;20962;-68
2021/08/12 07:01:55;;;;;;;8.60;7.47;;;22.70;99.90;;;;;;4986048;28;20197;-67
2021/08/12 07:04:21;;;;;;;12.60;8.63;;;22.80;99.90;;;;;;4982998;28;20218;-66
2021/08/12 07:06:47;;;;;;;12.53;8.77;;;22.90;99.90;;;;;;4982204;28;20193;-66
2021/08/12 07:09:12;;;;;;;13.50;8.70;;;22.90;99.90;;;;;;4981650;28;20206;-65
2021/08/12 07:11:38;;;;;;;13.20;7.50;;;22.80;99.90;;;;;;4983235;28;20276;-65
2021/08/12 07:14:04;;;;;;;7.80;7.00;;;22.80;99.90;;;;;;4985409;28;20212;-66
2021/08/12 07:16:32;;;;;;;10.40;7.97;;;22.70;99.90;;;;;;4983112;28;20232;-67
2021/08/12 07:18:58;;;;;;;10.53;8.00;;;22.70;99.90;;;;;;4985565;28;20190;-67
2021/08/12 07:21:24;;;;;;;12.93;8.43;;;22.70;99.90;;;;;;4987985;28;20457;-64
2021/08/12 07:23:50;;;;;;;14.63;7.73;;;22.80;99.90;;;;;;4964923;28;20658;-65
2021/08/12 07:26:17;;;;;;;11.60;9.10;;;22.70;99.90;;;;;;4972340;28;20835;-65
2021/08/12 07:28:46;;;;;;;12.53;8.43;;;22.70;99.90;;;;;;4985398;28;20182;-65
2021/08/12 07:31:14;;;;;;;12.57;7.50;;;22.80;99.90;;;;;;4987452;28;20456;-65
2021/08/12 07:33:40;;;;;;;11.63;8.43;;;22.90;99.90;;;;;;4985170;28;20958;-65
2021/08/12 07:36:06;;;;;;;9.73;8.50;;;22.80;99.90;;;;;;4984227;28;20465;-64
2021/08/12 07:38:34;;;;;;;10.60;7.73;;;22.90;99.90;;;;;;4985662;28;20196;-66
2021/08/12 07:41:00;;;;;;;11.27;8.13;;;22.80;99.90;;;;;;4985676;28;20449;-65
2021/08/12 07:43:27;;;;;;;11.73;8.23;;;22.70;99.90;;;;;;4986479;28;20508;-65
2021/08/12 07:45:53;;;;;;;12.53;8.43;;;22.70;99.90;;;;;;4987397;28;20461;-65
2021/08/12 07:48:19;;;;;;;11.73;7.90;;;22.40;99.90;;;;;;4985655;28;20429;-65
2021/08/12 07:50:46;;;;;;;10.33;8.33;;;22.50;99.90;;;;;;4987338;28;21102;-65
2021/08/12 07:53:14;;;;;;;10.73;8.33;;;22.50;99.90;;;;;;4985723;28;20186;-65
2021/08/12 07:55:40;;;;;;;14.63;9.80;;;22.60;99.90;;;;;;4988201;28;20608;-65
2021/08/12 07:58:06;;;;;;;11.63;8.43;;;22.80;99.90;;;;;;4988643;28;20962;-65
2021/08/12 08:00:32;;;;;;;12.43;9.07;;;22.80;99.90;;;;;;4988803;28;20829;-65
2021/08/12 08:02:58;;;;;;;18.50;9.10;;;23.00;99.90;;;;;;4984120;28;20198;-64
2021/08/12 08:05:24;;;;;;;11.73;9.30;;;23.20;99.90;;;;;;4989132;28;20441;-64
2021/08/12 08:07:52;;;;;;;10.50;7.63;;;23.30;99.90;;;;;;4987525;28;20449;-65
2021/08/12 08:10:20;;;;;;;9.10;7.50;;;23.40;99.90;;;;;;4987600;28;20433;-64
2021/08/12 08:12:46;;;;;;;13.90;8.30;;;23.50;99.90;;;;;;4988676;28;20432;-66
2021/08/12 08:15:14;;;;;;;12.23;9.50;;;23.50;99.90;;;;;;4988569;28;20470;-64
2021/08/12 08:17:40;;;;;;;9.93;7.50;;;23.50;99.90;;;;;;4969400;28;20202;-64
2021/08/12 08:20:08;;;;;;;12.80;9.47;;;23.60;99.90;;;;;;5002032;28;20961;-65
2021/08/12 08:22:33;;;;;;;10.40;9.40;;;23.70;99.90;;;;;;4988111;28;20417;-64
2021/08/12 08:24:59;;;;;;;10.53;7.90;;;23.90;99.90;;;;;;4986209;28;20441;-64
2021/08/12 08:27:25;;;;;;;12.03;9.07;;;23.80;99.90;;;;;;4986339;28;20535;-64
2021/08/12 08:29:51;;;;;;;8.47;7.57;;;23.80;99.90;;;;;;4986925;28;20196;-64
2021/08/12 08:32:21;;;;;;;12.47;7.37;;;23.90;99.90;;;;;;4986999;28;20190;-66
2021/08/12 08:34:47;;;;;;;8.40;7.03;;;23.90;99.90;;;;;;4985955;28;20459;-68
2021/08/12 08:37:14;;;;;;;11.43;8.30;;;23.90;99.90;;;;;;4985255;28;20473;-64
2021/08/12 08:39:43;;;;;;;13.13;8.70;;;24.00;99.90;;;;;;4985811;28;20428;-64
2021/08/12 08:42:11;;;;;;;18.03;14.20;;;23.90;99.90;;;;;;4987704;28;21020;-65
2021/08/12 08:44:39;;;;;;;10.43;9.13;;;24.00;99.90;;;;;;4973952;28;20457;-65
2021/08/12 08:47:08;;;;;;;9.30;7.80;;;24.00;99.90;;;;;;4986765;28;20480;-64
2021/08/12 08:49:37;;;;;;;14.87;10.00;;;24.10;99.90;;;;;;4983785;28;20468;-64
2021/08/12 08:52:04;;;;;;;10.57;8.40;;;24.20;99.90;;;;;;4987380;28;20432;-64
2021/08/12 08:54:31;;;;;;;10.97;9.77;;;24.30;99.90;;;;;;4981935;28;20457;-64
2021/08/12 08:56:58;;;;;;;8.93;8.00;;;24.30;99.90;;;;;;4987730;28;20884;-66
2021/08/12 08:59:26;;;;;;;12.50;8.50;;;24.50;99.90;;;;;;4983301;28;20434;-67
2021/08/12 09:01:52;;;;;;;10.43;8.03;;;24.50;99.90;;;;;;4987998;28;20449;-66
2021/08/12 09:04:18;;;;;;;9.53;7.83;;;24.60;99.90;;;;;;4992270;28;21044;-65
2021/08/12 09:06:44;;;;;;;11.83;8.70;;;24.70;99.90;;;;;;4987654;28;20229;-65
2021/08/12 09:09:10;;;;;;;12.00;8.37;;;24.90;99.90;;;;;;4986049;28;20734;-66
2021/08/12 09:11:36;;;;;;;10.80;7.73;;;25.00;99.90;;;;;;4983722;28;21002;-65
2021/08/12 09:14:41;;;;;;;8.20;7.20;;;25.20;99.90;;;;;;4988147;28;20583;-65
2021/08/12 09:17:18;;;;;;;10.97;7.33;;;25.30;99.90;;;;;;4984579;28;20193;-65
2021/08/12 09:19:59;;;;;;;7.90;6.93;;;25.50;99.90;;;;;;4986263;28;20440;-65
2021/08/12 09:22:28;;;;;;;11.10;8.57;;;25.50;99.90;;;;;;4991366;28;20504;-65
2021/08/12 09:24:54;;;;;;;10.37;8.27;;;25.40;99.90;;;;;;4992086;28;20443;-65
2021/08/12 09:27:21;;;;;;;10.03;9.03;;;25.40;99.90;;;;;;4990314;28;20452;-66
2021/08/12 09:30:07;;;;;;;14.50;8.97;;;25.50;99.90;;;;;;4989558;28;20467;-65
2021/08/12 09:32:46;;;;;;;10.27;8.20;;;25.60;99.90;;;;;;4987953;28;20518;-66
2021/08/12 09:35:13;;;;;;;11.37;8.67;;;25.60;99.90;;;;;;4990309;28;20444;-64
2021/08/12 09:37:39;;;;;;;13.20;7.57;;;25.40;99.90;;;;;;4990548;28;20461;-66
2021/08/12 09:40:05;;;;;;;9.10;8.20;;;25.50;99.90;;;;;;4990263;28;20433;-65
2021/08/12 09:42:55;;;;;;;10.93;8.90;;;25.60;99.90;;;;;;4989087;28;20221;-66
2021/08/12 09:45:26;;;;;;;8.87;8.07;;;25.60;99.90;;;;;;4991485;28;20445;-70
2021/08/12 09:47:55;;;;;;;10.53;8.83;;;25.70;99.90;;;;;;4989303;28;20495;-68
2021/08/12 09:50:26;;;;;;;12.20;8.10;;;25.80;99.90;;;;;;4989940;28;20449;-65
2021/08/12 09:52:55;;;;;;;11.50;8.50;;;25.80;99.90;;;;;;4966526;28;20805;-64
2021/08/12 09:55:24;;;;;;;11.90;7.80;;;25.70;99.90;;;;;;4990711;28;20871;-64
2021/08/12 09:58:08;;;;;;;14.23;8.40;;;25.70;99.90;;;;;;4989756;28;20588;-65
2021/08/12 10:00:47;;;;;;;10.53;8.03;;;25.50;99.90;;;;;;4982704;28;20436;-66
2021/08/12 10:03:26;;;;;;;8.20;7.40;;;25.70;99.90;;;;;;4991247;28;20435;-65
2021/08/12 10:06:00;;;;;;;8.67;6.73;;;25.80;99.90;;;;;;4988979;28;20457;-65
2021/08/12 10:08:28;;;;;;;8.17;6.67;;;25.90;99.90;;;;;;4988702;28;20441;-65
2021/08/12 10:10:55;;;;;;;12.40;8.53;;;26.00;99.90;;;;;;4990936;28;20405;-65
2021/08/12 10:13:21;;;;;;;8.30;7.40;;;26.10;99.90;;;;;;4985906;28;20441;-64
2021/08/12 10:15:51;;;;;;;8.87;7.50;;;26.20;99.90;;;;;;4990178;28;20475;-65
2021/08/12 10:18:19;;;;;;;11.57;8.47;;;26.40;99.90;;;;;;4969439;28;20430;-63
2021/08/12 10:20:46;;;;;;;10.63;7.77;;;26.60;99.90;;;;;;4989333;28;20500;-62
2021/08/12 10:23:16;;;;;;;7.20;6.60;;;26.50;99.90;;;;;;4987313;28;20425;-64
2021/08/12 10:25:42;;;;;;;8.10;7.30;;;26.60;99.90;;;;;;4988948;28;20433;-63
2021/08/12 10:28:10;;;;;;;8.17;7.27;;;26.70;99.90;;;;;;4989694;28;21153;-63
2021/08/12 10:30:37;;;;;;;8.57;7.70;;;26.70;99.90;;;;;;4987265;28;20900;-64
2021/08/12 10:33:05;;;;;;;8.70;7.77;;;26.80;99.90;;;;;;4988027;28;20515;-64
2021/08/12 10:35:36;;;;;;;8.23;7.00;;;26.70;99.90;;;;;;4990509;28;20428;-63
2021/08/12 10:38:06;;;;;;;7.30;6.60;;;26.70;99.90;;;;;;4989989;28;20421;-63
2021/08/12 10:40:37;;;;;;;8.80;6.60;;;26.80;99.90;;;;;;4988661;28;20433;-63
2021/08/12 10:43:05;;;;;;;6.80;6.20;;;26.90;99.90;;;;;;4990075;28;20425;-66
2021/08/12 10:45:32;;;;;;;11.83;7.60;;;27.00;99.90;;;;;;4988109;28;20429;-66
2021/08/12 10:48:00;;;;;;;7.97;7.27;;;27.20;99.90;;;;;;4989494;28;20853;-67
2021/08/12 10:50:37;;;;;;;7.77;7.00;;;27.30;99.90;;;;;;4987556;28;20452;-66
2021/08/12 10:53:21;;;;;;;8.37;6.67;;;27.30;99.90;;;;;;4980438;28;20444;-66
2021/08/12 10:55:49;;;;;;;7.57;6.83;;;27.50;99.90;;;;;;4990745;28;20448;-67
2021/08/12 10:58:18;;;;;;;7.73;6.90;;;27.60;99.90;;;;;;4989244;28;20558;-63
2021/08/12 11:00:50;;;;;;;9.00;6.97;;;27.60;99.90;;;;;;4988252;28;20499;-63
2021/08/12 11:03:35;;;;;;;11.10;6.70;;;27.60;99.90;;;;;;4989861;28;20429;-64
2021/08/12 11:06:13;;;;;;;8.03;7.23;;;27.60;99.90;;;;;;4984161;28;20444;-63
2021/08/12 11:11:31;;;;;;;10.73;6.40;;;27.80;99.90;;;;;;4989775;28;20421;-63
2021/08/12 11:14:02;;;;;;;10.20;6.43;;;28.00;99.90;;;;;;4990536;28;20496;-63
2021/08/12 11:16:50;;;;;;;7.57;6.80;;;28.20;99.90;;;;;;4984215;28;20457;-63
2021/08/12 11:19:22;;;;;;;7.90;7.10;;;28.30;99.90;;;;;;4988251;28;20422;-64
2021/08/12 11:21:51;;;;;;;7.93;7.07;;;28.40;99.90;;;;;;4990216;28;20417;-64
2021/08/12 11:24:23;;;;;;;7.57;6.87;;;28.40;99.90;;;;;;4998942;28;20460;-63
2021/08/12 11:26:48;;;;;;;7.57;6.63;;;28.50;99.90;;;;;;4989829;28;20949;-63
2021/08/12 11:29:28;;;;;;;9.07;7.20;;;28.60;99.90;;;;;;4989369;28;20436;-63
2021/08/12 11:31:58;;;;;;;9.47;7.10;;;28.50;99.90;;;;;;4987736;28;20201;-64
2021/08/12 11:34:58;;;;;;;7.60;6.77;;;28.70;99.90;;;;;;4983488;28;20468;-64
2021/08/12 11:37:29;;;;;;;7.93;7.03;;;28.90;99.90;;;;;;4982145;28;20472;-64
2021/08/12 11:40:03;;;;;;;6.73;6.13;;;29.00;99.90;;;;;;4989638;28;20413;-63
2021/08/12 11:42:38;;;;;;;8.03;6.73;;;29.10;99.90;;;;;;4989754;28;20417;-64
2021/08/12 11:45:25;;;;;;;7.53;6.90;;;29.20;99.90;;;;;;4987998;28;20467;-64
2021/08/12 11:47:56;;;;;;;8.20;7.40;;;29.30;99.90;;;;;;4982651;28;20803;-64
2021/08/12 11:50:29;;;;;;;7.37;6.67;;;29.40;99.90;;;;;;4985706;28;20445;-64
2021/08/12 11:52:55;;;;;;;8.00;7.20;;;29.40;99.90;;;;;;4989226;28;20476;-64
2021/08/12 11:55:23;;;;;;;8.37;7.00;;;29.40;99.90;;;;;;4987925;28;20531;-62
2021/08/12 11:57:57;;;;;;;8.07;7.30;;;29.70;99.90;;;;;;4988692;28;20464;-64
2021/08/12 12:00:31;;;;;;;7.57;6.87;;;29.80;99.90;;;;;;4988705;28;20550;-63
2021/08/12 12:02:58;;;;;;;7.80;7.10;;;30.20;99.90;;;;;;4987292;28;20977;-63
2021/08/12 12:05:26;;;;;;;8.30;7.60;;;30.50;99.90;;;;;;4984532;28;20535;-64
2021/08/12 12:07:57;;;;;;;7.40;6.77;;;30.80;99.90;;;;;;4989214;28;20457;-63
2021/08/12 12:10:33;;;;;;;7.43;6.47;;;31.30;99.90;;;;;;4987648;28;20459;-63
2021/08/12 12:13:19;;;;;;;7.43;6.83;;;32.10;99.90;;;;;;4988717;28;20535;-63
2021/08/12 12:15:49;;;;;;;7.00;6.40;;;33.00;99.90;;;;;;4988444;28;20512;-63
2021/08/12 12:18:34;;;;;;;8.30;7.50;;;33.60;99.90;;;;;;4983776;28;20800;-63
2021/08/12 12:21:10;;;;;;;7.87;7.07;;;33.90;99.90;;;;;;4988120;28;20441;-62
2021/08/12 12:23:44;;;;;;;7.40;6.27;;;34.90;99.90;;;;;;4985790;28;20461;-64
2021/08/12 12:26:27;;;;;;;7.30;6.70;;;35.40;99.90;;;;;;4986421;28;20458;-63
2021/08/12 12:28:53;;;;;;;7.37;6.50;;;36.40;99.90;;;;;;4984503;28;20478;-63
2021/08/12 12:31:21;;;;;;;6.87;6.23;;;37.30;98.40;;;;;;4989378;28;20399;-64
2021/08/12 12:34:02;;;;;;;6.97;6.37;;;38.00;94.90;;;;;;4986529;28;20436;-63
2021/08/12 12:36:32;;;;;;;6.70;6.10;;;38.40;91.90;;;;;;4984474;28;20472;-64
2021/08/12 12:38:58;;;;;;;8.47;6.50;;;38.20;90.60;;;;;;4985307;28;20417;-63
2021/08/12 12:41:24;;;;;;;8.10;6.50;;;37.00;90.00;;;;;;4985685;28;20438;-65
2021/08/12 12:44:06;;;;;;;6.70;6.00;;;37.80;87.30;;;;;;4982097;28;20941;-63
2021/08/12 12:46:32;;;;;;;7.40;6.70;;;38.60;83.80;;;;;;4978213;28;20269;-64
2021/08/12 12:49:17;;;;;;;6.63;6.03;;;39.00;81.70;;;;;;4985238;28;20571;-65
2021/08/12 12:51:43;;;;;;;7.33;6.73;;;39.70;77.50;;;;;;4985908;28;20721;-66
2021/08/12 12:54:09;;;;;;;8.53;6.60;;;40.00;77.30;;;;;;4988491;28;20491;-67